Time;durP1;ratioP1;P1;durP2;ratioP2;P2;SDS_P1;SDS_P2;PMS_P1;PMS_P2;Temp;Humidity;BMP_temperature;BMP_pressure;BME280_temperature;BME280_humidity;BME280_pressure;Samples;Min_cycle;Max_cycle;Signal;HPM_P1;HPM_P2
2021/07/13 00:01:01;;;;;;;4.17;2.30;;;21.40;99.90;;;;;;5036672;28;20180;-54
2021/07/13 00:03:26;;;;;;;2.60;2.20;;;21.50;99.90;;;;;;5037011;28;20223;-56
2021/07/13 00:05:52;;;;;;;2.27;2.07;;;21.40;99.90;;;;;;5037188;28;20218;-59
2021/07/13 00:08:17;;;;;;;2.77;2.50;;;21.40;99.90;;;;;;5037076;28;20188;-61
2021/07/13 00:10:44;;;;;;;2.20;1.97;;;21.50;99.90;;;;;;5037132;28;20191;-56
2021/07/13 00:13:09;;;;;;;2.33;2.17;;;21.40;99.90;;;;;;5036279;28;20188;-59
2021/07/13 00:15:39;;;;;;;2.37;2.17;;;21.40;99.90;;;;;;5036634;28;20247;-63
2021/07/13 00:18:06;;;;;;;3.97;2.40;;;21.40;99.90;;;;;;5036741;28;20211;-62
2021/07/13 00:20:32;;;;;;;2.53;2.33;;;21.20;99.90;;;;;;5036832;28;20230;-55
2021/07/13 00:22:58;;;;;;;3.13;2.40;;;21.00;99.90;;;;;;5036761;28;20206;-60
2021/07/13 00:25:26;;;;;;;2.40;2.20;;;21.00;99.90;;;;;;5036621;28;20592;-60
2021/07/13 00:27:51;;;;;;;2.33;2.13;;;21.00;99.90;;;;;;5036199;28;20247;-57
2021/07/13 00:30:18;;;;;;;2.60;2.40;;;21.00;99.90;;;;;;5036490;28;20180;-60
2021/07/13 00:32:44;;;;;;;2.90;2.10;;;21.00;99.90;;;;;;5036465;28;20258;-61
2021/07/13 00:35:10;;;;;;;2.37;2.17;;;21.00;99.90;;;;;;5036541;28;20269;-60
2021/07/13 00:37:36;;;;;;;2.60;2.40;;;21.00;99.90;;;;;;5034894;28;20203;-58
2021/07/13 00:40:03;;;;;;;2.30;2.13;;;21.00;99.90;;;;;;5036671;28;20538;-61
2021/07/13 00:42:28;;;;;;;2.67;2.20;;;21.00;99.90;;;;;;5036131;28;20254;-60
2021/07/13 00:44:54;;;;;;;2.53;2.00;;;21.00;99.90;;;;;;5036372;28;20206;-58
2021/07/13 00:47:22;;;;;;;2.27;2.13;;;20.90;99.90;;;;;;5036324;28;20664;-58
2021/07/13 00:49:49;;;;;;;2.40;2.17;;;20.90;99.90;;;;;;5036054;28;20196;-58
2021/07/13 00:52:15;;;;;;;2.40;2.20;;;21.00;99.90;;;;;;5036254;28;20175;-62
2021/07/13 00:54:46;;;;;;;2.60;2.40;;;20.90;99.90;;;;;;5036348;28;20202;-61
2021/07/13 00:57:12;;;;;;;2.77;2.57;;;21.00;99.90;;;;;;5035949;28;20194;-58
2021/07/13 00:59:40;;;;;;;2.70;2.50;;;20.90;99.90;;;;;;5035645;28;20204;-60
2021/07/13 01:02:08;;;;;;;2.57;2.37;;;20.90;99.90;;;;;;5035976;28;20635;-64
2021/07/13 01:04:39;;;;;;;2.60;2.40;;;21.00;99.90;;;;;;5036119;28;20206;-64
2021/07/13 01:07:09;;;;;;;2.60;2.40;;;20.90;99.90;;;;;;5036134;28;20221;-61
2021/07/13 01:09:34;;;;;;;2.50;2.30;;;20.90;99.90;;;;;;5035398;28;20226;-60
2021/07/13 01:12:11;;;;;;;2.43;2.23;;;20.90;99.90;;;;;;5035332;28;20186;-60
2021/07/13 01:14:55;;;;;;;2.23;2.13;;;20.90;99.90;;;;;;5035913;28;20687;-61
2021/07/13 01:17:28;;;;;;;2.40;2.20;;;20.90;99.90;;;;;;5035629;28;20199;-61
2021/07/13 01:20:21;;;;;;;2.10;2.00;;;20.90;99.90;;;;;;5035514;28;20568;-64
2021/07/13 01:22:51;;;;;;;2.50;2.30;;;20.90;99.90;;;;;;5035521;28;20175;-56
2021/07/13 01:25:41;;;;;;;2.57;2.37;;;20.90;99.90;;;;;;5035876;28;20184;-56
2021/07/13 01:28:07;;;;;;;2.37;2.27;;;20.90;99.90;;;;;;5035368;28;20230;-64
2021/07/13 01:30:41;;;;;;;2.60;2.27;;;20.80;99.90;;;;;;5035383;28;20175;-64
2021/07/13 01:33:20;;;;;;;2.40;2.20;;;20.80;99.90;;;;;;5035354;28;20267;-62
2021/07/13 01:35:51;;;;;;;2.27;2.07;;;20.80;99.90;;;;;;5035515;28;20222;-64
2021/07/13 01:38:20;;;;;;;3.10;2.03;;;20.80;99.90;;;;;;5034895;28;20203;-63
2021/07/13 01:40:48;;;;;;;3.73;2.53;;;20.80;99.90;;;;;;5034943;28;20167;-63
2021/07/13 01:43:14;;;;;;;2.70;2.50;;;20.70;99.90;;;;;;5034657;28;20199;-62
2021/07/13 01:45:42;;;;;;;2.50;2.30;;;20.70;99.90;;;;;;5035218;28;20262;-59
2021/07/13 01:48:10;;;;;;;2.53;2.33;;;20.70;99.90;;;;;;5034833;28;20207;-61
2021/07/13 01:50:36;;;;;;;2.73;2.53;;;20.70;99.90;;;;;;5035287;28;20214;-61
2021/07/13 01:53:04;;;;;;;3.03;2.30;;;20.70;99.90;;;;;;5034464;28;20200;-58
2021/07/13 01:55:38;;;;;;;3.57;2.50;;;20.60;99.90;;;;;;5034979;28;20211;-63
2021/07/13 01:58:04;;;;;;;2.60;2.40;;;20.60;99.90;;;;;;5034863;28;20211;-62
2021/07/13 02:00:31;;;;;;;3.37;2.60;;;20.60;99.90;;;;;;5035037;28;20264;-61
2021/07/13 02:02:59;;;;;;;2.83;2.30;;;20.70;99.90;;;;;;5034479;28;20640;-63
2021/07/13 02:05:26;;;;;;;3.80;3.03;;;20.70;99.90;;;;;;5035051;28;20508;-63
2021/07/13 02:07:55;;;;;;;3.30;2.60;;;20.70;99.90;;;;;;5034596;28;20202;-59
2021/07/13 02:10:21;;;;;;;2.63;2.43;;;20.70;99.90;;;;;;5034529;28;20214;-61
2021/07/13 02:12:47;;;;;;;2.70;2.50;;;20.60;99.90;;;;;;5034488;28;20184;-55
2021/07/13 02:15:13;;;;;;;2.50;2.30;;;20.60;99.90;;;;;;5034719;28;20555;-54
2021/07/13 02:17:38;;;;;;;2.60;2.40;;;20.70;99.90;;;;;;5034654;28;20667;-55
2021/07/13 02:20:09;;;;;;;2.57;2.37;;;20.60;99.90;;;;;;5034297;28;20554;-62
2021/07/13 02:22:36;;;;;;;4.10;2.70;;;20.60;99.90;;;;;;5034209;28;20168;-58
2021/07/13 02:25:05;;;;;;;2.70;2.50;;;20.50;99.90;;;;;;5034367;28;20168;-62
2021/07/13 02:27:31;;;;;;;2.73;2.53;;;20.50;99.90;;;;;;5034346;28;20250;-62
2021/07/13 02:29:59;;;;;;;5.30;2.63;;;20.40;99.90;;;;;;5034451;28;20183;-56
2021/07/13 02:32:32;;;;;;;3.77;2.43;;;20.50;99.90;;;;;;5034445;28;20635;-63
2021/07/13 02:35:01;;;;;;;3.37;2.70;;;20.40;99.90;;;;;;5034753;28;20282;-59
2021/07/13 02:37:28;;;;;;;2.50;2.30;;;20.40;99.90;;;;;;5033823;28;20188;-61
2021/07/13 02:39:54;;;;;;;3.03;2.67;;;20.40;99.90;;;;;;5034275;28;20266;-61
2021/07/13 02:42:22;;;;;;;3.43;2.50;;;20.40;99.90;;;;;;5034234;28;20172;-64
2021/07/13 02:44:49;;;;;;;2.70;2.50;;;20.40;99.90;;;;;;5034490;28;20180;-54
2021/07/13 02:47:16;;;;;;;2.70;2.50;;;20.40;99.90;;;;;;5034321;28;20194;-62
2021/07/13 02:49:48;;;;;;;3.80;2.63;;;20.20;99.90;;;;;;5033764;28;20180;-63
2021/07/13 02:52:23;;;;;;;3.50;2.63;;;20.00;99.90;;;;;;5033922;28;20612;-62
2021/07/13 02:54:55;;;;;;;3.60;2.57;;;19.90;99.90;;;;;;5034164;28;20631;-63
2021/07/13 02:57:22;;;;;;;2.87;2.57;;;19.90;99.90;;;;;;5033787;28;20204;-61
2021/07/13 02:59:50;;;;;;;2.50;2.30;;;19.90;99.90;;;;;;5034888;28;20175;-63
2021/07/13 03:02:15;;;;;;;3.30;2.70;;;20.00;99.90;;;;;;5037787;28;20174;-54
2021/07/13 03:04:42;;;;;;;2.87;2.63;;;19.90;99.90;;;;;;5038213;28;20262;-61
2021/07/13 03:07:08;;;;;;;2.37;2.20;;;20.00;99.90;;;;;;5038107;28;20270;-56
2021/07/13 03:09:34;;;;;;;3.27;2.97;;;20.00;99.90;;;;;;5037720;28;20187;-60
2021/07/13 03:12:00;;;;;;;3.20;2.90;;;19.90;99.90;;;;;;5037712;28;20214;-62
2021/07/13 03:14:28;;;;;;;3.97;3.00;;;20.20;99.90;;;;;;5037602;28;20226;-63
2021/07/13 03:16:55;;;;;;;2.60;2.27;;;19.80;99.90;;;;;;5037723;28;20537;-63
2021/07/13 03:19:21;;;;;;;5.90;3.20;;;19.90;99.90;;;;;;5037655;28;20203;-55
2021/07/13 03:21:51;;;;;;;3.10;2.80;;;19.90;99.90;;;;;;5037520;28;20532;-60
2021/07/13 03:24:17;;;;;;;3.13;2.90;;;20.10;99.90;;;;;;5038138;28;20179;-61
2021/07/13 03:26:45;;;;;;;3.00;2.70;;;20.20;99.90;;;;;;5037464;28;20175;-62
2021/07/13 03:29:12;;;;;;;2.80;2.60;;;20.20;99.90;;;;;;5037390;28;20536;-54
2021/07/13 03:31:40;;;;;;;2.50;2.30;;;20.20;99.90;;;;;;5037161;28;20222;-59
2021/07/13 03:34:06;;;;;;;2.80;2.60;;;20.30;99.90;;;;;;5037669;28;20168;-55
2021/07/13 03:36:32;;;;;;;3.47;2.50;;;20.20;99.90;;;;;;5037374;28;20172;-62
2021/07/13 03:38:59;;;;;;;4.17;3.00;;;20.30;99.90;;;;;;5037694;28;20517;-55
2021/07/13 03:41:27;;;;;;;3.23;3.00;;;20.30;99.90;;;;;;5037553;28;20168;-60
2021/07/13 03:43:53;;;;;;;3.00;2.80;;;20.40;99.90;;;;;;5037249;28;20620;-63
2021/07/13 03:46:19;;;;;;;3.30;2.87;;;20.30;99.90;;;;;;5037326;28;20172;-63
2021/07/13 03:48:47;;;;;;;3.73;3.13;;;20.40;99.90;;;;;;5037474;28;20188;-58
2021/07/13 03:51:46;;;;;;;3.00;2.80;;;20.40;99.90;;;;;;5037206;28;20175;-55
2021/07/13 03:54:15;;;;;;;5.43;3.00;;;20.50;99.90;;;;;;5037169;28;20198;-63
2021/07/13 03:56:41;;;;;;;3.33;2.93;;;20.50;99.90;;;;;;5037002;28;20187;-61
2021/07/13 03:59:07;;;;;;;3.50;3.20;;;20.60;99.90;;;;;;5037147;28;20675;-62
2021/07/13 04:01:34;;;;;;;2.90;2.70;;;20.70;99.90;;;;;;5036821;28;20168;-64
2021/07/13 04:04:00;;;;;;;3.50;3.20;;;20.60;99.90;;;;;;5037365;28;20171;-61
2021/07/13 04:06:25;;;;;;;3.30;3.00;;;20.70;99.90;;;;;;5037274;28;20630;-63
2021/07/13 04:08:51;;;;;;;4.93;3.30;;;20.80;99.90;;;;;;5036487;28;20717;-56
2021/07/13 04:11:17;;;;;;;3.50;3.20;;;20.80;99.90;;;;;;5036442;28;20171;-63
2021/07/13 04:13:43;;;;;;;3.20;3.00;;;20.90;99.90;;;;;;5036735;28;20176;-58
2021/07/13 04:16:09;;;;;;;4.10;3.70;;;20.90;99.90;;;;;;5036962;28;20299;-60
2021/07/13 04:18:34;;;;;;;3.50;3.10;;;20.90;99.90;;;;;;5036886;28;20231;-58
2021/07/13 04:21:00;;;;;;;4.70;3.43;;;20.80;99.90;;;;;;5036938;28;20200;-63
2021/07/13 04:23:26;;;;;;;3.33;3.03;;;20.80;99.90;;;;;;5036383;28;20247;-60
2021/07/13 04:25:51;;;;;;;4.00;3.60;;;20.70;99.90;;;;;;5035911;28;20711;-60
2021/07/13 04:28:17;;;;;;;3.20;2.90;;;20.70;99.90;;;;;;5036659;28;20262;-58
2021/07/13 04:30:42;;;;;;;5.03;3.20;;;20.80;99.90;;;;;;5036980;28;20186;-57
2021/07/13 04:33:08;;;;;;;2.97;2.77;;;20.60;99.90;;;;;;5036663;28;20244;-60
2021/07/13 04:35:33;;;;;;;3.87;3.13;;;20.60;99.90;;;;;;5036325;28;20190;-63
2021/07/13 04:37:59;;;;;;;3.37;3.17;;;20.70;99.90;;;;;;5036296;28;20211;-62
2021/07/13 04:40:25;;;;;;;3.17;2.90;;;20.80;99.90;;;;;;5036494;28;20180;-61
2021/07/13 04:42:50;;;;;;;4.30;3.20;;;20.90;99.90;;;;;;5036162;28;20180;-57
2021/07/13 04:45:16;;;;;;;3.80;3.50;;;20.90;99.90;;;;;;5036472;28;20258;-58
2021/07/13 04:47:41;;;;;;;4.40;3.50;;;21.00;99.90;;;;;;5036405;28;20299;-62
2021/07/13 04:50:08;;;;;;;3.70;3.40;;;21.10;99.90;;;;;;5036550;28;20191;-62
2021/07/13 04:52:34;;;;;;;4.70;3.47;;;21.10;99.90;;;;;;5035642;28;20172;-61
2021/07/13 04:55:00;;;;;;;3.80;3.50;;;21.20;99.90;;;;;;5036043;28;20172;-62
2021/07/13 04:57:26;;;;;;;4.30;3.63;;;21.30;99.90;;;;;;5036620;28;20196;-63
2021/07/13 04:59:53;;;;;;;3.30;3.10;;;21.50;99.90;;;;;;5035738;28;20219;-64
2021/07/13 05:02:19;;;;;;;3.77;3.47;;;21.50;99.90;;;;;;5035597;28;20167;-58
2021/07/13 05:04:44;;;;;;;3.70;3.40;;;21.50;99.90;;;;;;5036276;28;20180;-57
2021/07/13 05:07:10;;;;;;;3.90;3.20;;;21.50;99.90;;;;;;5035587;28;20203;-64
2021/07/13 05:09:35;;;;;;;3.63;3.33;;;21.50;99.90;;;;;;5035670;28;20264;-61
2021/07/13 05:12:01;;;;;;;4.07;3.33;;;21.60;99.90;;;;;;5035426;28;20180;-60
2021/07/13 05:14:26;;;;;;;4.17;3.77;;;21.70;99.90;;;;;;5035620;28;20205;-62
2021/07/13 05:16:52;;;;;;;3.50;3.27;;;21.90;99.90;;;;;;5034866;28;20234;-63
2021/07/13 05:19:17;;;;;;;4.30;3.90;;;22.00;99.90;;;;;;5034126;28;20196;-53
2021/07/13 05:21:48;;;;;;;4.27;3.30;;;22.00;99.90;;;;;;5030782;28;20184;-55
2021/07/13 05:24:14;;;;;;;4.45;3.80;;;22.10;99.90;;;;;;5029671;28;20227;-57
2021/07/13 05:26:39;;;;;;;5.57;3.80;;;22.20;99.90;;;;;;5028973;28;20185;-63
2021/07/13 05:29:06;;;;;;;4.15;3.80;;;22.20;99.90;;;;;;5021751;28;20235;-53
2021/07/13 05:31:33;;;;;;;3.70;3.40;;;22.30;99.90;;;;;;5024170;28;20182;-63
2021/07/13 05:33:59;;;;;;;5.13;3.53;;;22.40;99.90;;;;;;5032963;28;20177;-56
2021/07/13 05:36:25;;;;;;;4.15;3.85;;;22.60;99.90;;;;;;5022116;28;20188;-57
2021/07/13 05:38:53;;;;;;;5.35;3.60;;;22.60;99.90;;;;;;5031524;28;20251;-52
2021/07/13 05:41:22;;;;;;;4.90;4.40;;;22.80;99.90;;;;;;5033079;28;20188;-62
2021/07/13 05:43:49;;;;;;;3.97;3.67;;;22.90;99.90;;;;;;5034929;28;20197;-62
2021/07/13 05:46:15;;;;;;;4.20;3.88;;;23.00;99.90;;;;;;5033417;28;20162;-60
2021/07/13 05:48:41;;;;;;;4.35;3.95;;;23.10;99.90;;;;;;5034138;28;20210;-60
2021/07/13 05:51:06;;;;;;;4.38;2.83;;;23.20;99.90;;;;;;5034758;28;20180;-58
2021/07/13 05:53:33;;;;;;;3.60;3.30;;;23.10;99.90;;;;;;5034475;28;20197;-60
2021/07/13 05:55:59;;;;;;;3.90;2.75;;;23.00;99.90;;;;;;5034369;28;20217;-62
2021/07/13 05:58:24;;;;;;;2.92;2.72;;;23.10;99.90;;;;;;5034199;28;20199;-59
2021/07/13 06:00:50;;;;;;;3.70;3.40;;;23.10;99.90;;;;;;5031330;28;20222;-55
2021/07/13 06:03:15;;;;;;;5.00;3.50;;;23.20;99.90;;;;;;5014238;28;20168;-61
2021/07/13 06:05:41;;;;;;;3.80;3.50;;;23.30;99.90;;;;;;5023483;28;20579;-62
2021/07/13 06:08:06;;;;;;;4.70;3.47;;;23.50;99.90;;;;;;5031106;28;20203;-62
2021/07/13 06:10:32;;;;;;;3.20;3.00;;;23.60;99.90;;;;;;5034060;28;20213;-59
2021/07/13 06:12:58;;;;;;;4.95;3.75;;;23.70;99.90;;;;;;5033189;28;20210;-62
2021/07/13 06:15:23;;;;;;;3.60;3.30;;;23.80;99.90;;;;;;5033475;28;20286;-61
2021/07/13 06:17:49;;;;;;;3.95;3.63;;;23.90;99.90;;;;;;5034300;28;20577;-55
2021/07/13 06:20:15;;;;;;;3.83;3.50;;;24.00;99.90;;;;;;5033425;28;20230;-62
2021/07/13 06:22:40;;;;;;;3.30;3.00;;;24.00;99.90;;;;;;5033010;28;20716;-60
2021/07/13 06:25:07;;;;;;;4.60;3.17;;;23.90;99.90;;;;;;5033429;28;20259;-60
2021/07/13 06:27:33;;;;;;;3.38;3.00;;;23.90;99.90;;;;;;5033037;28;20204;-62
2021/07/13 06:29:59;;;;;;;3.33;3.03;;;23.90;99.90;;;;;;5033974;28;20229;-63
2021/07/13 06:32:24;;;;;;;3.15;2.85;;;23.90;99.90;;;;;;5032989;28;20262;-62
2021/07/13 06:34:50;;;;;;;3.40;3.10;;;23.80;99.90;;;;;;5029890;28;20172;-57
2021/07/13 06:37:16;;;;;;;3.30;3.05;;;23.90;99.90;;;;;;5012803;28;20189;-63
2021/07/13 06:39:41;;;;;;;3.00;2.80;;;24.20;99.90;;;;;;5012850;28;20200;-63
2021/07/13 06:42:07;;;;;;;3.40;3.10;;;24.10;99.90;;;;;;5014295;28;20256;-62
2021/07/13 06:44:32;;;;;;;3.78;3.38;;;24.20;99.90;;;;;;5014459;28;20204;-58
2021/07/13 06:46:58;;;;;;;3.70;3.40;;;24.30;99.90;;;;;;5015038;28;20185;-58
2021/07/13 06:49:23;;;;;;;4.28;3.80;;;24.40;99.90;;;;;;5014380;28;20617;-61
2021/07/13 06:51:49;;;;;;;4.65;4.25;;;24.60;99.90;;;;;;5013981;28;20397;-63
2021/07/13 06:54:15;;;;;;;5.13;4.65;;;24.80;99.90;;;;;;5014074;28;20196;-63
2021/07/13 06:56:41;;;;;;;3.53;3.22;;;24.90;99.90;;;;;;5014349;28;20175;-60
2021/07/13 06:59:06;;;;;;;3.00;2.80;;;24.80;99.90;;;;;;5014151;28;20219;-62
2021/07/13 07:01:32;;;;;;;3.20;2.90;;;24.80;99.90;;;;;;5014019;28;20170;-63
2021/07/13 07:03:57;;;;;;;3.20;2.95;;;24.80;99.90;;;;;;5014266;28;20565;-61
2021/07/13 07:06:23;;;;;;;2.67;2.47;;;24.80;99.90;;;;;;5013662;28;20181;-58
2021/07/13 07:08:48;;;;;;;3.33;3.03;;;24.90;99.90;;;;;;5013690;28;20208;-63
2021/07/13 07:11:14;;;;;;;5.43;4.95;;;25.20;99.90;;;;;;5013688;28;20621;-63
2021/07/13 07:13:40;;;;;;;5.25;4.75;;;25.30;99.90;;;;;;5013810;28;20652;-63
2021/07/13 07:16:05;;;;;;;6.45;5.25;;;25.10;99.90;;;;;;5014483;28;20176;-63
2021/07/13 07:18:31;;;;;;;4.90;4.40;;;25.20;99.90;;;;;;5013616;28;20665;-59
2021/07/13 07:20:57;;;;;;;5.13;4.72;;;25.30;99.90;;;;;;5014095;28;20177;-62
2021/07/13 07:23:22;;;;;;;4.65;4.20;;;25.50;99.90;;;;;;5013816;28;20660;-63
2021/07/13 07:25:48;;;;;;;4.75;4.35;;;25.60;99.90;;;;;;5019331;28;20185;-61
2021/07/13 07:28:13;;;;;;;4.72;4.30;;;25.70;99.90;;;;;;5031757;28;20706;-62
2021/07/13 07:30:39;;;;;;;5.50;5.00;;;25.80;99.90;;;;;;5032075;28;20171;-63
2021/07/13 07:33:05;;;;;;;3.90;3.50;;;26.00;99.90;;;;;;5032123;28;20258;-60
2021/07/13 07:35:30;;;;;;;4.00;3.38;;;26.00;99.90;;;;;;5033133;28;20181;-55
2021/07/13 07:37:57;;;;;;;3.50;3.20;;;25.80;99.90;;;;;;5032677;28;20218;-62
2021/07/13 07:40:23;;;;;;;5.70;3.65;;;25.60;99.90;;;;;;5032771;28;20498;-61
2021/07/13 07:42:54;;;;;;;4.13;3.72;;;25.50;99.90;;;;;;5032825;28;20305;-63
2021/07/13 07:45:22;;;;;;;4.03;3.63;;;25.50;99.90;;;;;;5030668;28;20263;-62
2021/07/13 07:47:48;;;;;;;4.45;4.05;;;25.50;99.90;;;;;;5036567;28;20722;-60
2021/07/13 07:50:15;;;;;;;4.78;4.00;;;25.30;99.90;;;;;;5036447;28;20688;-63
2021/07/13 07:52:41;;;;;;;4.68;4.28;;;25.20;99.90;;;;;;5035839;28;20230;-61
2021/07/13 07:55:08;;;;;;;4.45;4.05;;;25.10;99.90;;;;;;5035335;28;20524;-59
2021/07/13 07:57:34;;;;;;;4.68;4.28;;;25.00;99.90;;;;;;5036302;28;20204;-58
2021/07/13 07:59:59;;;;;;;5.47;4.85;;;25.20;99.90;;;;;;5036812;28;20180;-63
2021/07/13 08:02:25;;;;;;;5.20;4.80;;;25.30;99.90;;;;;;5036350;28;20172;-61
2021/07/13 08:04:50;;;;;;;7.53;4.70;;;25.50;99.90;;;;;;5036605;28;20543;-61
2021/07/13 08:07:18;;;;;;;5.72;5.20;;;25.60;99.90;;;;;;5036501;28;20196;-63
2021/07/13 08:09:44;;;;;;;5.30;4.85;;;25.70;99.90;;;;;;5036419;28;20199;-57
2021/07/13 08:12:09;;;;;;;5.65;4.95;;;25.80;99.90;;;;;;5034583;28;20258;-59
2021/07/13 08:14:35;;;;;;;5.45;4.50;;;25.80;99.90;;;;;;5036705;28;20186;-62
2021/07/13 08:17:00;;;;;;;5.07;4.50;;;26.00;99.90;;;;;;5036223;28;20196;-63
2021/07/13 08:19:26;;;;;;;5.30;4.82;;;26.20;99.90;;;;;;5036233;28;20615;-61
2021/07/13 08:21:51;;;;;;;5.85;5.13;;;26.00;99.90;;;;;;5036503;28;20176;-63
2021/07/13 08:24:17;;;;;;;5.85;4.90;;;25.90;99.90;;;;;;5036452;28;20247;-60
2021/07/13 08:26:42;;;;;;;5.45;4.95;;;25.90;99.90;;;;;;5035999;28;20571;-61
2021/07/13 08:29:08;;;;;;;6.00;4.90;;;25.80;99.90;;;;;;5033800;28;20180;-62
2021/07/13 08:31:34;;;;;;;5.30;4.75;;;26.10;99.90;;;;;;5035025;28;20667;-63
2021/07/13 08:34:00;;;;;;;5.28;4.88;;;26.30;99.90;;;;;;5035968;28;20191;-61
2021/07/13 08:36:26;;;;;;;6.55;5.90;;;26.20;99.90;;;;;;5036067;28;20531;-63
2021/07/13 08:38:51;;;;;;;7.70;5.45;;;26.00;99.90;;;;;;5035789;28;20286;-59
2021/07/13 08:41:20;;;;;;;6.38;5.53;;;25.80;99.90;;;;;;5035581;28;20180;-58
2021/07/13 08:43:46;;;;;;;7.57;6.15;;;25.70;99.90;;;;;;5035836;28;20183;-63
2021/07/13 08:46:11;;;;;;;6.13;5.38;;;25.60;99.90;;;;;;5035834;28;20175;-60
2021/07/13 08:48:40;;;;;;;6.75;5.53;;;25.70;99.90;;;;;;5035847;28;20196;-59
2021/07/13 08:51:06;;;;;;;6.53;5.88;;;25.80;99.90;;;;;;5035464;28;20176;-60
2021/07/13 08:53:32;;;;;;;8.15;6.15;;;25.90;99.90;;;;;;5035541;28;20204;-62
2021/07/13 08:55:57;;;;;;;6.60;5.93;;;26.10;99.90;;;;;;5035658;28;20210;-63
2021/07/13 08:58:24;;;;;;;7.30;6.43;;;26.20;99.90;;;;;;5034235;28;20234;-63
2021/07/13 09:00:50;;;;;;;6.85;6.22;;;26.40;99.90;;;;;;5035425;28;20674;-63
2021/07/13 09:03:19;;;;;;;6.60;6.03;;;26.50;99.90;;;;;;5035072;28;20212;-60
2021/07/13 09:05:48;;;;;;;6.28;5.65;;;26.60;99.90;;;;;;5035646;28;20180;-59
2021/07/13 09:08:28;;;;;;;6.68;5.80;;;26.60;99.90;;;;;;5033106;28;20664;-61
2021/07/13 09:11:13;;;;;;;6.75;6.15;;;26.60;99.90;;;;;;5035215;28;20184;-62
2021/07/13 09:13:54;;;;;;;5.85;5.35;;;26.60;99.90;;;;;;5035462;28;20164;-60
2021/07/13 09:16:26;;;;;;;6.90;6.20;;;27.00;99.90;;;;;;5035150;28;20206;-62
2021/07/13 09:18:56;;;;;;;7.03;6.40;;;27.30;99.90;;;;;;5034143;28;20203;-58
2021/07/13 09:21:34;;;;;;;7.40;6.50;;;27.00;99.90;;;;;;5031966;28;20170;-61
2021/07/13 09:24:14;;;;;;;7.32;6.63;;;27.20;99.90;;;;;;5034772;28;20195;-62
2021/07/13 09:26:52;;;;;;;7.07;6.38;;;27.40;99.90;;;;;;5034801;28;20171;-63
2021/07/13 09:29:35;;;;;;;6.72;6.00;;;27.50;99.90;;;;;;5034752;28;20203;-62
2021/07/13 09:32:22;;;;;;;6.68;6.07;;;27.90;99.90;;;;;;5031882;28;20178;-58
2021/07/13 09:34:49;;;;;;;6.30;5.75;;;28.00;99.90;;;;;;5034795;28;20172;-62
2021/07/13 09:37:26;;;;;;;6.60;6.00;;;28.10;99.90;;;;;;5034950;28;20278;-60
2021/07/13 09:39:56;;;;;;;6.50;5.90;;;28.40;99.90;;;;;;5034694;28;20203;-60
2021/07/13 09:42:24;;;;;;;8.15;6.07;;;29.00;99.90;;;;;;5029495;28;20184;-62
2021/07/13 09:44:49;;;;;;;7.18;6.47;;;29.10;99.90;;;;;;5028335;28;20176;-62
2021/07/13 09:47:31;;;;;;;7.00;6.30;;;29.00;99.90;;;;;;5033578;28;20218;-57
2021/07/13 09:49:58;;;;;;;6.47;5.85;;;29.00;99.90;;;;;;5030171;28;20195;-61
2021/07/13 09:52:25;;;;;;;6.75;6.15;;;29.30;99.90;;;;;;5034273;28;20258;-60
2021/07/13 09:54:51;;;;;;;8.02;6.30;;;29.70;99.90;;;;;;5034463;28;20176;-60
2021/07/13 09:57:28;;;;;;;6.63;5.93;;;29.80;99.90;;;;;;5034440;28;20254;-56
2021/07/13 09:59:58;;;;;;;8.93;6.28;;;30.20;99.90;;;;;;5032668;28;20564;-60
2021/07/13 10:02:26;;;;;;;6.28;5.78;;;30.60;99.90;;;;;;5033283;28;20171;-57
2021/07/13 10:04:53;;;;;;;5.72;5.22;;;31.00;99.90;;;;;;5031444;28;20238;-58
2021/07/13 10:07:20;;;;;;;6.50;5.80;;;31.40;99.90;;;;;;5028879;28;20215;-61
2021/07/13 10:09:51;;;;;;;7.10;5.53;;;31.40;99.90;;;;;;5033517;28;20278;-63
2021/07/13 10:12:22;;;;;;;6.00;5.50;;;31.60;99.90;;;;;;5033513;28;20176;-61
2021/07/13 10:14:55;;;;;;;6.50;5.68;;;31.90;99.90;;;;;;5028885;28;20187;-61
2021/07/13 10:17:23;;;;;;;7.03;5.93;;;32.10;99.90;;;;;;5032122;28;20256;-59
2021/07/13 10:19:51;;;;;;;6.32;5.78;;;31.80;99.90;;;;;;5033477;28;20191;-59
2021/07/13 10:22:19;;;;;;;6.10;5.60;;;31.70;99.90;;;;;;5031757;28;20210;-61
2021/07/13 10:24:48;;;;;;;6.43;5.57;;;31.80;99.90;;;;;;5032758;28;20172;-59
2021/07/13 10:27:25;;;;;;;6.60;5.60;;;32.10;99.90;;;;;;5030940;28;20206;-59
2021/07/13 10:29:51;;;;;;;5.70;5.20;;;32.70;99.90;;;;;;5033820;28;20211;-58
2021/07/13 10:32:16;;;;;;;6.15;5.55;;;32.40;99.90;;;;;;5033959;28;20207;-59
2021/07/13 10:34:53;;;;;;;6.05;5.45;;;31.90;99.90;;;;;;5033527;28;20175;-59
2021/07/13 10:37:37;;;;;;;6.18;5.68;;;31.70;99.90;;;;;;5033162;28;20187;-60
2021/07/13 10:40:05;;;;;;;5.80;5.30;;;31.60;99.90;;;;;;5033849;28;20202;-59
2021/07/13 10:42:46;;;;;;;8.27;6.53;;;31.70;99.90;;;;;;5033877;28;20179;-60
2021/07/13 10:45:29;;;;;;;6.55;5.80;;;31.70;99.90;;;;;;5034426;28;20258;-60
2021/07/13 10:48:00;;;;;;;8.07;6.70;;;31.40;99.90;;;;;;5033391;28;20548;-60
2021/07/13 10:50:25;;;;;;;7.40;6.57;;;31.30;99.90;;;;;;5031629;28;20254;-58
2021/07/13 10:52:58;;;;;;;8.25;6.63;;;31.20;99.90;;;;;;5033510;28;20207;-61
2021/07/13 10:55:35;;;;;;;7.32;6.47;;;31.10;99.90;;;;;;5033889;28;20210;-60
2021/07/13 10:58:28;;;;;;;6.63;6.00;;;30.90;99.90;;;;;;5033771;28;20243;-59
2021/07/13 11:00:56;;;;;;;9.35;5.50;;;30.60;99.90;;;;;;5026795;28;20223;-60
2021/07/13 11:06:01;;;;;;;7.57;6.50;;;30.40;99.90;;;;;;5032932;28;20175;-57
2021/07/13 11:08:41;;;;;;;6.43;5.90;;;30.30;99.90;;;;;;5033136;28;20195;-61
2021/07/13 11:11:19;;;;;;;7.40;6.40;;;30.40;99.90;;;;;;5032024;28;20218;-61
2021/07/13 11:13:58;;;;;;;7.03;6.32;;;30.40;99.90;;;;;;5031868;28;20215;-60
2021/07/13 11:16:28;;;;;;;9.45;6.28;;;30.20;99.90;;;;;;5032644;28;20180;-61
2021/07/13 11:18:55;;;;;;;6.95;6.25;;;30.10;99.90;;;;;;5032804;28;20556;-58
2021/07/13 11:21:22;;;;;;;7.38;6.10;;;30.20;99.90;;;;;;5034473;28;20176;-59
2021/07/13 11:23:56;;;;;;;6.50;5.88;;;30.50;99.90;;;;;;5037908;28;20672;-59
2021/07/13 11:26:25;;;;;;;7.18;6.10;;;30.20;99.90;;;;;;5037581;28;20172;-60
2021/07/13 11:28:52;;;;;;;10.15;6.68;;;30.00;99.90;;;;;;5037602;28;20198;-61
2021/07/13 11:31:29;;;;;;;9.73;6.88;;;29.80;99.90;;;;;;5037471;28;20204;-55
2021/07/13 11:33:56;;;;;;;10.98;6.72;;;29.70;99.90;;;;;;5037547;28;20271;-60
2021/07/13 11:36:26;;;;;;;7.82;6.35;;;29.60;99.90;;;;;;5037602;28;20250;-60
2021/07/13 11:38:52;;;;;;;8.23;6.35;;;29.50;99.90;;;;;;5037120;28;20200;-59
2021/07/13 11:41:19;;;;;;;12.07;6.82;;;29.50;99.90;;;;;;5036956;28;20175;-59
2021/07/13 11:43:49;;;;;;;7.45;6.72;;;29.50;99.90;;;;;;5037271;28;20172;-61
2021/07/13 11:46:18;;;;;;;10.02;6.88;;;29.40;99.90;;;;;;5037276;28;20255;-57
2021/07/13 11:49:01;;;;;;;12.25;7.20;;;29.40;99.90;;;;;;5036316;28;20203;-60
2021/07/13 11:51:27;;;;;;;8.10;7.03;;;29.60;99.90;;;;;;5037157;28;20505;-60
2021/07/13 11:54:03;;;;;;;8.60;6.72;;;29.50;99.90;;;;;;5037107;28;20183;-60
2021/07/13 11:56:30;;;;;;;7.45;6.75;;;29.60;99.90;;;;;;5037414;28;20160;-59
2021/07/13 11:58:56;;;;;;;7.68;6.78;;;29.80;99.90;;;;;;5036577;28;20203;-60
2021/07/13 12:01:24;;;;;;;9.02;6.43;;;30.10;99.90;;;;;;5031513;28;20668;-59
2021/07/13 12:03:52;;;;;;;6.75;6.05;;;30.50;99.90;;;;;;5036031;28;20208;-58
2021/07/13 12:06:23;;;;;;;8.63;6.85;;;31.10;99.90;;;;;;5036168;28;20662;-54
2021/07/13 12:09:00;;;;;;;7.90;7.00;;;31.20;99.90;;;;;;5035105;28;20694;-60
2021/07/13 12:11:30;;;;;;;9.43;6.78;;;31.10;99.90;;;;;;5035453;28;20172;-60
2021/07/13 12:13:58;;;;;;;8.13;7.32;;;30.90;99.90;;;;;;5036192;28;20215;-60
2021/07/13 12:16:30;;;;;;;12.23;7.20;;;30.80;99.90;;;;;;5035808;28;20172;-60
2021/07/13 12:19:00;;;;;;;10.93;7.88;;;30.60;99.90;;;;;;5034328;28;20297;-61
2021/07/13 12:21:26;;;;;;;8.73;6.90;;;30.60;99.90;;;;;;5035534;28;20176;-61
2021/07/13 12:23:54;;;;;;;7.90;7.05;;;30.20;99.90;;;;;;5035542;28;20255;-58
2021/07/13 12:26:27;;;;;;;7.97;7.05;;;30.20;99.90;;;;;;5034972;28;20239;-61
2021/07/13 12:29:11;;;;;;;8.25;7.40;;;30.50;99.90;;;;;;5035974;28;20253;-61
2021/07/13 12:31:50;;;;;;;8.27;7.50;;;30.50;99.90;;;;;;5034978;28;20180;-61
2021/07/13 12:34:21;;;;;;;7.97;7.25;;;30.40;99.90;;;;;;5035386;28;20322;-59
2021/07/13 12:37:02;;;;;;;8.85;7.57;;;30.30;99.90;;;;;;5035309;28;20666;-58
2021/07/13 12:39:27;;;;;;;8.88;7.85;;;30.10;99.90;;;;;;5035633;28;20218;-61
2021/07/13 12:42:00;;;;;;;8.05;7.20;;;29.90;99.90;;;;;;5034993;28;20165;-60
2021/07/13 12:44:35;;;;;;;9.40;8.48;;;29.80;99.90;;;;;;5035405;28;20263;-58
2021/07/13 12:47:32;;;;;;;8.68;7.47;;;29.80;99.90;;;;;;5035285;28;20187;-61
2021/07/13 12:50:10;;;;;;;7.60;7.00;;;30.10;99.90;;;;;;5035674;28;20176;-59
2021/07/13 12:52:43;;;;;;;9.52;7.75;;;30.10;99.90;;;;;;5034890;28;20184;-61
2021/07/13 12:55:17;;;;;;;8.13;7.43;;;29.80;99.90;;;;;;5035099;28;20229;-59